Time;durP1;ratioP1;P1;durP2;ratioP2;P2;SDS_P1;SDS_P2;PMS_P1;PMS_P2;Temp;Humidity;BMP_temperature;BMP_pressure;BME280_temperature;BME280_humidity;BME280_pressure;Samples;Min_cycle;Max_cycle;Signal;HPM_P1;HPM_P2
2023/01/02 00:01:10;;;;;;;37.85;24.00;;;;;;;10.82;100.00;101483.81;5071928;28;20337;-68
2023/01/02 00:03:35;;;;;;;31.60;23.08;;;;;;;10.76;100.00;101469.94;5066551;28;20068;-68
2023/01/02 00:06:05;;;;;;;31.67;22.42;;;;;;;10.80;100.00;101480.34;5076495;28;20053;-68
2023/01/02 00:08:30;;;;;;;35.72;23.23;;;;;;;10.80;100.00;101479.50;5064923;28;20058;-68
2023/01/02 00:10:56;;;;;;;37.70;23.90;;;;;;;10.79;100.00;101483.16;5071843;28;20055;-68
2023/01/02 00:13:22;;;;;;;36.42;24.42;;;;;;;10.77;100.00;101479.72;5067072;28;20051;-68
2023/01/02 00:15:47;;;;;;;37.90;25.60;;;;;;;10.73;100.00;101473.72;5070576;28;20073;-69
2023/01/02 00:18:12;;;;;;;40.00;25.60;;;;;;;10.75;100.00;101485.19;5070055;28;20498;-68
2023/01/02 00:20:38;;;;;;;38.40;25.10;;;;;;;10.69;100.00;101469.53;5067331;28;20051;-68
2023/01/02 00:23:03;;;;;;;39.13;26.60;;;;;;;10.64;100.00;101468.97;5067478;28;20043;-68
2023/01/02 00:25:29;;;;;;;36.22;25.17;;;;;;;10.67;100.00;101474.13;5067500;28;20016;-69
2023/01/02 00:27:55;;;;;;;39.08;26.48;;;;;;;10.65;100.00;101465.34;5077136;28;20098;-69
2023/01/02 00:30:21;;;;;;;42.30;27.50;;;;;;;10.62;100.00;101465.56;5065979;28;20067;-68
2023/01/02 00:32:46;;;;;;;37.10;26.30;;;;;;;10.56;100.00;101465.97;5069720;28;20226;-68
2023/01/02 00:35:11;;;;;;;44.33;27.65;;;;;;;10.31;100.00;101427.53;5080919;28;20036;-69
2023/01/02 00:37:37;;;;;;;41.35;26.80;;;;;;;10.42;100.00;101457.16;5077085;28;20028;-68
2023/01/02 00:40:03;;;;;;;41.75;27.23;;;;;;;10.42;100.00;101463.38;5070744;28;20035;-69
2023/01/02 00:42:28;;;;;;;42.67;27.85;;;;;;;10.36;100.00;101460.28;5071345;28;20040;-68
2023/01/02 00:44:54;;;;;;;46.15;28.70;;;;;;;10.22;100.00;101444.28;5071024;28;20046;-69
2023/01/02 00:47:19;;;;;;;45.08;28.67;;;;;;;10.32;100.00;101454.25;5077788;28;20037;-69
2023/01/02 00:49:45;;;;;;;44.90;28.40;;;;;;;10.24;100.00;101456.63;5075181;28;20012;-69
2023/01/02 00:52:10;;;;;;;45.25;29.15;;;;;;;10.21;100.00;101464.00;5084923;28;20039;-69
2023/01/02 00:54:35;;;;;;;40.90;28.17;;;;;;;10.18;100.00;101467.75;5084235;28;20024;-69
2023/01/02 00:57:01;;;;;;;43.05;28.88;;;;;;;10.11;100.00;101469.13;5074821;28;20047;-69
2023/01/02 00:59:26;;;;;;;43.83;28.15;;;;;;;10.09;100.00;101470.22;5073267;28;20036;-70
2023/01/02 01:01:52;;;;;;;44.42;28.35;;;;;;;10.03;100.00;101465.22;5078823;28;20678;-69
2023/01/02 01:04:17;;;;;;;46.88;29.65;;;;;;;9.97;100.00;101466.50;5076795;28;20020;-69
2023/01/02 01:06:43;;;;;;;45.60;27.63;;;;;;;9.85;100.00;101439.66;5071564;28;20028;-69
2023/01/02 01:09:08;;;;;;;42.25;29.40;;;;;;;9.87;100.00;101456.50;5082270;28;20028;-69
2023/01/02 01:11:34;;;;;;;43.35;28.73;;;;;;;9.90;100.00;101457.13;5073468;28;20035;-70
2023/01/02 01:13:59;;;;;;;46.25;29.80;;;;;;;9.83;100.00;101460.34;5079518;28;20024;-69
2023/01/02 01:16:25;;;;;;;46.05;30.00;;;;;;;9.77;100.00;101453.53;5071128;28;20058;-69
2023/01/02 01:18:55;;;;;;;45.00;29.13;;;;;;;9.72;100.00;101453.00;5083838;28;20036;-69
2023/01/02 01:21:20;;;;;;;43.90;29.48;;;;;;;9.51;100.00;101427.63;5079466;28;20212;-69
2023/01/02 01:23:54;;;;;;;46.50;30.60;;;;;;;9.64;100.00;101441.94;5077075;28;20040;-69
2023/01/02 01:26:21;;;;;;;43.40;29.67;;;;;;;9.60;100.00;101452.94;5082415;28;20032;-69
2023/01/02 01:28:46;;;;;;;48.63;30.08;;;;;;;9.57;100.00;101445.97;5073260;28;20031;-69
2023/01/02 01:31:14;;;;;;;45.92;30.40;;;;;;;9.51;100.00;101446.38;5066908;28;20039;-68
2023/01/02 01:33:40;;;;;;;44.72;29.55;;;;;;;9.43;100.00;101454.06;5079131;28;20020;-69
2023/01/02 01:36:08;;;;;;;46.30;31.88;;;;;;;9.41;100.00;101450.63;5077770;28;20024;-69
2023/01/02 01:38:34;;;;;;;46.05;29.98;;;;;;;9.30;100.00;101431.72;5071073;28;20487;-69
2023/01/02 01:41:00;;;;;;;41.60;29.10;;;;;;;9.32;100.00;101442.34;5075620;28;20064;-68
2023/01/02 01:43:50;;;;;;;45.65;30.15;;;;;;;9.25;100.00;101447.22;5071556;28;20032;-69
2023/01/02 01:46:21;;;;;;;42.72;28.20;;;;;;;9.17;100.00;101438.81;5070114;28;20484;-69
2023/01/02 01:48:48;;;;;;;44.53;29.77;;;;;;;8.93;100.00;101408.25;5076793;28;20402;-69
2023/01/02 01:51:15;;;;;;;43.42;29.17;;;;;;;9.02;100.00;101421.94;5080096;28;20603;-69
2023/01/02 01:53:42;;;;;;;41.55;28.67;;;;;;;9.02;100.00;101434.44;5069565;28;20023;-69
2023/01/02 01:56:11;;;;;;;44.80;29.10;;;;;;;8.98;100.00;101441.81;5075111;28;20024;-69
2023/01/02 01:58:45;;;;;;;40.58;29.30;;;;;;;8.92;100.00;101430.63;5074242;28;20043;-69
2023/01/02 02:01:14;;;;;;;45.92;29.15;;;;;;;8.77;100.00;101421.75;5066829;28;20542;-69
2023/01/02 02:03:42;;;;;;;46.70;29.27;;;;;;;8.71;100.00;101411.44;5070905;28;20032;-69
2023/01/02 02:06:09;;;;;;;40.75;27.77;;;;;;;8.72;100.00;101415.00;5080587;28;20032;-69
2023/01/02 02:08:44;;;;;;;41.33;27.73;;;;;;;8.65;100.00;101411.81;5074268;28;20032;-69
2023/01/02 02:11:11;;;;;;;45.25;30.83;;;;;;;8.48;100.00;101400.50;5084867;28;20028;-68
2023/01/02 02:13:37;;;;;;;39.95;27.73;;;;;;;8.58;100.00;101426.53;5068043;28;20403;-69
2023/01/02 02:16:05;;;;;;;40.47;27.35;;;;;;;8.53;100.00;101417.09;5075937;28;20062;-69
2023/01/02 02:19:04;;;;;;;47.22;30.90;;;;;;;8.45;100.00;101419.38;5071056;28;20043;-69
2023/01/02 02:21:54;;;;;;;43.33;28.42;;;;;;;8.41;100.00;101409.81;5084504;28;20043;-69
2023/01/02 02:24:47;;;;;;;44.65;28.90;;;;;;;8.34;100.00;101416.50;5080553;28;20032;-69
2023/01/02 02:27:48;;;;;;;43.35;29.77;;;;;;;8.26;100.00;101411.59;5067965;28;20232;-69
2023/01/02 02:30:20;;;;;;;41.63;26.58;;;;;;;8.22;100.00;101418.09;5068508;28;20099;-69
2023/01/02 02:33:04;;;;;;;40.70;26.90;;;;;;;8.16;100.00;101414.91;5078397;28;20028;-69
2023/01/02 02:35:39;;;;;;;40.30;27.02;;;;;;;8.13;100.00;101412.44;5074084;28;20031;-69
2023/01/02 02:38:20;;;;;;;38.50;27.05;;;;;;;8.08;100.00;101417.19;5074823;28;20076;-70
2023/01/02 02:40:45;;;;;;;41.70;27.23;;;;;;;8.05;100.00;101404.88;5081538;28;20044;-69
2023/01/02 02:43:22;;;;;;;46.60;28.85;;;;;;;8.03;100.00;101417.44;5074325;28;20027;-69
2023/01/02 02:46:18;;;;;;;39.75;27.35;;;;;;;7.98;100.00;101413.34;5073919;28;20079;-69
2023/01/02 02:49:18;;;;;;;44.33;27.30;;;;;;;7.93;100.00;101410.09;5072464;28;20513;-68
2023/01/02 02:52:07;;;;;;;42.60;26.85;;;;;;;7.84;100.00;101407.97;5055025;28;20041;-69
2023/01/02 02:54:40;;;;;;;41.05;27.83;;;;;;;7.77;100.00;101406.63;5072482;28;20047;-69
2023/01/02 02:57:08;;;;;;;41.25;27.27;;;;;;;7.73;100.00;101413.06;5077158;28;20047;-69
2023/01/02 02:59:36;;;;;;;42.25;27.10;;;;;;;7.67;100.00;101410.78;5072036;28;20028;-69
2023/01/02 03:02:03;;;;;;;44.72;28.83;;;;;;;7.65;100.00;101415.34;5066988;28;20032;-69
2023/01/02 03:04:29;;;;;;;40.45;27.95;;;;;;;7.59;100.00;101416.56;5075819;28;20016;-69
2023/01/02 03:07:00;;;;;;;41.90;28.02;;;;;;;7.54;100.00;101407.94;5074332;28;20038;-69
2023/01/02 03:09:48;;;;;;;43.28;27.95;;;;;;;7.49;100.00;101411.84;5075262;28;20552;-69
2023/01/02 03:12:40;;;;;;;41.58;27.40;;;;;;;7.44;100.00;101406.75;5069069;28;20412;-69
2023/01/02 03:15:27;;;;;;;45.28;29.60;;;;;;;7.35;100.00;101399.28;5070197;28;20104;-69
2023/01/02 03:18:19;;;;;;;42.42;26.75;;;;;;;7.35;100.00;101401.94;5071334;28;20034;-69
2023/01/02 03:20:57;;;;;;;43.50;28.42;;;;;;;7.38;100.00;101396.44;5075776;28;20112;-69
2023/01/02 03:23:25;;;;;;;42.75;28.08;;;;;;;7.27;100.00;101385.53;5075567;28;20039;-69
2023/01/02 03:25:52;;;;;;;42.20;27.83;;;;;;;7.28;100.00;101389.06;5075134;28;20028;-69
2023/01/02 03:28:22;;;;;;;42.25;28.58;;;;;;;7.27;100.00;101388.19;5071996;28;20419;-69
2023/01/02 03:30:53;;;;;;;43.10;28.83;;;;;;;7.24;100.00;101384.81;5064039;28;20035;-69
2023/01/02 03:33:24;;;;;;;41.10;28.13;;;;;;;7.23;100.00;101380.44;5072568;28;20121;-69
2023/01/02 03:35:54;;;;;;;41.67;28.52;;;;;;;7.11;100.00;101365.13;5071026;28;20059;-69
2023/01/02 03:38:26;;;;;;;40.97;28.48;;;;;;;7.17;100.00;101376.34;5071147;28;20174;-69
2023/01/02 03:41:04;;;;;;;41.22;28.58;;;;;;;7.20;100.00;101380.63;5070437;28;20024;-69
2023/01/02 03:43:32;;;;;;;39.88;26.42;;;;;;;7.21;100.00;101387.66;5073878;28;20039;-69
2023/01/02 03:46:12;;;;;;;41.70;27.45;;;;;;;7.18;100.00;101377.16;5071470;28;20494;-69
2023/01/02 03:49:11;;;;;;;43.95;28.75;;;;;;;7.26;100.00;101381.16;5077108;28;20203;-69
2023/01/02 03:51:37;;;;;;;45.45;29.92;;;;;;;7.28;100.00;101378.41;5072733;28;20447;-69
2023/01/02 03:54:04;;;;;;;52.78;32.50;;;;;;;7.32;100.00;101380.78;5069988;28;20062;-69
2023/01/02 03:56:43;;;;;;;51.63;32.30;;;;;;;7.33;100.00;101378.97;5076600;28;20345;-69
2023/01/02 03:59:32;;;;;;;48.40;32.13;;;;;;;7.34;100.00;101384.22;5077934;28;20020;-69
2023/01/02 04:01:57;;;;;;;43.47;28.05;;;;;;;7.34;100.00;101383.34;5068047;28;20517;-69
2023/01/02 04:04:29;;;;;;;46.03;29.60;;;;;;;7.34;100.00;101389.56;5072521;28;20024;-69
2023/01/02 04:07:00;;;;;;;44.30;28.20;;;;;;;7.32;100.00;101390.59;5070682;28;20031;-69
2023/01/02 04:09:29;;;;;;;42.83;28.02;;;;;;;7.17;100.00;101363.00;5077945;28;20020;-68
2023/01/02 04:12:03;;;;;;;40.20;26.15;;;;;;;7.30;100.00;101377.34;5074577;28;20036;-68
2023/01/02 04:14:54;;;;;;;41.17;27.92;;;;;;;7.31;100.00;101395.06;5073062;28;20036;-67
2023/01/02 04:17:23;;;;;;;38.95;27.67;;;;;;;7.27;100.00;101387.31;5078838;28;20505;-68
2023/01/02 04:19:56;;;;;;;43.92;29.10;;;;;;;7.28;100.00;101399.75;5077508;28;20036;-68
2023/01/02 04:22:35;;;;;;;46.47;30.27;;;;;;;7.26;100.00;101389.16;5082915;28;20125;-69
2023/01/02 04:25:09;;;;;;;48.70;29.95;;;;;;;7.22;100.00;101378.75;5076321;28;20054;-69
2023/01/02 04:27:42;;;;;;;42.92;29.10;;;;;;;7.31;100.00;101405.75;5072619;28;20036;-69
2023/01/02 04:30:07;;;;;;;44.20;29.77;;;;;;;7.29;100.00;101396.13;5070453;28;20041;-69
2023/01/02 04:32:39;;;;;;;42.47;30.15;;;;;;;7.20;100.00;101384.16;5069643;28;20081;-68
2023/01/02 04:35:08;;;;;;;42.90;27.80;;;;;;;7.26;100.00;101401.63;5068904;28;20024;-68
2023/01/02 04:37:37;;;;;;;40.30;28.90;;;;;;;7.23;100.00;101396.47;5079870;28;20419;-68
2023/01/02 04:40:22;;;;;;;40.85;27.00;;;;;;;7.22;100.00;101398.25;5075184;28;20033;-68
2023/01/02 04:42:48;;;;;;;42.00;28.15;;;;;;;7.21;100.00;101393.88;5081735;28;20060;-68
2023/01/02 04:45:13;;;;;;;41.45;26.58;;;;;;;7.18;100.00;101394.03;5081094;28;20059;-68
2023/01/02 04:47:39;;;;;;;38.60;26.77;;;;;;;7.26;100.00;101404.28;5075847;28;20051;-69
2023/01/02 04:50:06;;;;;;;38.10;26.50;;;;;;;7.14;100.00;101375.63;5080841;28;20377;-68
2023/01/02 04:52:31;;;;;;;36.22;25.13;;;;;;;7.24;100.00;101393.72;5073318;28;20378;-69
2023/01/02 04:54:57;;;;;;;37.83;25.17;;;;;;;7.03;100.00;101366.44;5072920;28;20093;-68
2023/01/02 04:57:22;;;;;;;36.20;24.60;;;;;;;7.25;100.00;101399.91;5076819;28;20073;-69
2023/01/02 04:59:48;;;;;;;35.33;24.40;;;;;;;7.21;100.00;101401.88;5079583;28;20055;-68
2023/01/02 05:02:13;;;;;;;34.90;24.00;;;;;;;7.17;100.00;101392.34;5079595;28;20887;-68
2023/01/02 05:04:38;;;;;;;39.45;27.65;;;;;;;7.28;100.00;101407.75;5079262;28;20138;-68
2023/01/02 05:07:04;;;;;;;45.95;31.55;;;;;;;7.19;100.00;101392.25;5080522;28;20128;-68
2023/01/02 05:09:29;;;;;;;42.80;30.13;;;;;;;7.29;100.00;101409.47;5072215;28;20055;-68
2023/01/02 05:11:55;;;;;;;42.33;30.15;;;;;;;7.30;100.00;101411.16;5073993;28;20036;-68
2023/01/02 05:14:20;;;;;;;43.22;27.27;;;;;;;7.29;100.00;101412.13;5071357;28;20016;-68
2023/01/02 05:16:46;;;;;;;39.83;26.52;;;;;;;7.27;100.00;101408.66;5075649;28;20517;-68
2023/01/02 05:19:11;;;;;;;36.92;26.55;;;;;;;7.24;100.00;101400.84;5075996;28;20728;-68
2023/01/02 05:24:21;;;;;;;37.13;25.52;;;;;;;7.23;100.00;101413.34;5081611;28;20039;-69
2023/01/02 05:26:46;;;;;;;36.92;23.75;;;;;;;7.19;100.00;101400.25;5070814;28;20044;-69
2023/01/02 05:29:12;;;;;;;34.97;23.08;;;;;;;7.16;100.00;101411.94;5073989;28;20084;-69
2023/01/02 05:31:37;;;;;;;35.65;22.95;;;;;;;7.09;100.00;101397.22;5070269;28;20488;-69
2023/01/02 05:34:03;;;;;;;31.20;22.60;;;;;;;7.07;100.00;101400.94;5069097;28;20031;-69
2023/01/02 05:36:28;;;;;;;32.30;22.23;;;;;;;7.15;100.00;101414.72;5067155;28;20020;-69
2023/01/02 05:38:54;;;;;;;37.67;24.60;;;;;;;7.11;100.00;101414.03;5074234;28;20027;-68
2023/01/02 05:41:21;;;;;;;38.28;25.65;;;;;;;7.12;100.00;101414.88;5074260;28;20028;-68
2023/01/02 05:43:46;;;;;;;42.80;28.27;;;;;;;7.09;100.00;101415.91;5068024;28;20051;-68
2023/01/02 05:46:14;;;;;;;45.00;28.70;;;;;;;7.10;100.00;101411.44;5068540;28;20020;-68
2023/01/02 05:48:40;;;;;;;43.60;28.45;;;;;;;7.07;100.00;101413.31;5071724;28;20048;-69
2023/01/02 05:51:09;;;;;;;42.22;28.80;;;;;;;7.07;100.00;101406.28;5069866;28;20032;-69
2023/01/02 05:53:35;;;;;;;41.50;27.27;;;;;;;7.06;100.00;101409.91;5068573;28;20032;-68
2023/01/02 05:56:11;;;;;;;40.13;26.88;;;;;;;7.07;100.00;101414.28;5073215;28;20035;-68
2023/01/02 05:58:39;;;;;;;39.70;27.60;;;;;;;7.11;100.00;101421.16;5072669;28;20058;-68
2023/01/02 06:01:10;;;;;;;36.55;26.38;;;;;;;7.07;100.00;101413.31;5082675;28;20494;-68
2023/01/02 06:03:36;;;;;;;33.50;25.45;;;;;;;7.03;100.00;101406.44;5065999;28;20029;-68
2023/01/02 06:06:07;;;;;;;34.78;24.55;;;;;;;6.93;100.00;101394.56;5066190;28;20430;-68
2023/01/02 06:08:32;;;;;;;37.38;25.65;;;;;;;7.06;100.00;101412.56;5066948;28;20035;-68
2023/01/02 06:10:58;;;;;;;39.50;26.67;;;;;;;6.94;100.00;101385.59;5065439;28;20037;-68
2023/01/02 06:13:24;;;;;;;36.65;26.02;;;;;;;7.01;100.00;101399.47;5070141;28;20044;-68
2023/01/02 06:15:50;;;;;;;37.30;26.15;;;;;;;7.00;100.00;101398.59;5065794;28;20032;-68
2023/01/02 06:18:15;;;;;;;33.53;24.05;;;;;;;7.11;100.00;101413.16;5064919;28;20048;-68
2023/01/02 06:20:41;;;;;;;33.60;24.75;;;;;;;7.11;100.00;101407.81;5068328;28;21421;-68
2023/01/02 06:23:06;;;;;;;37.88;24.70;;;;;;;7.08;100.00;101403.53;5070674;28;20033;-68
2023/01/02 06:25:33;;;;;;;35.03;24.48;;;;;;;7.16;100.00;101405.75;5079252;28;20055;-68
2023/01/02 06:27:58;;;;;;;35.88;23.98;;;;;;;7.18;100.00;101407.38;5072833;28;20093;-68
2023/01/02 06:30:23;;;;;;;36.53;24.20;;;;;;;7.13;100.00;101404.13;5077205;28;20028;-69
2023/01/02 06:32:49;;;;;;;37.55;24.30;;;;;;;7.18;100.00;101409.19;5072112;28;20032;-68
2023/01/02 06:35:14;;;;;;;38.40;25.10;;;;;;;7.18;100.00;101404.72;5075800;28;20026;-68
2023/01/02 06:37:43;;;;;;;36.92;23.98;;;;;;;7.19;100.00;101405.59;5076963;28;20464;-68
2023/01/02 06:40:10;;;;;;;42.05;26.10;;;;;;;7.07;100.00;101384.94;5069844;28;20024;-69
2023/01/02 06:42:36;;;;;;;41.33;25.23;;;;;;;7.19;100.00;101413.59;5078624;28;20182;-68
2023/01/02 06:45:03;;;;;;;42.42;26.13;;;;;;;7.20;100.00;101405.50;5074663;28;20075;-69
2023/01/02 06:47:28;;;;;;;36.55;25.45;;;;;;;7.24;100.00;101408.84;5070971;28;20036;-68
2023/01/02 06:49:54;;;;;;;38.95;25.30;;;;;;;7.23;100.00;101405.34;5070394;28;20029;-68
2023/01/02 06:52:19;;;;;;;40.15;27.23;;;;;;;7.23;100.00;101413.34;5072443;28;20047;-68
2023/01/02 06:54:45;;;;;;;41.03;26.83;;;;;;;7.23;100.00;101397.34;5081532;28;20028;-68
2023/01/02 06:57:10;;;;;;;38.15;24.63;;;;;;;7.36;100.00;101418.81;5075588;28;20020;-68
2023/01/02 06:59:36;;;;;;;37.40;23.60;;;;;;;7.37;100.00;101409.88;5070011;28;20036;-68
2023/01/02 07:02:01;;;;;;;39.13;23.98;;;;;;;7.42;100.00;101418.47;5068401;28;20037;-68
2023/01/02 07:04:27;;;;;;;33.78;22.50;;;;;;;7.49;100.00;101426.06;5072545;28;20055;-68
2023/01/02 07:06:52;;;;;;;33.40;22.92;;;;;;;7.40;100.00;101404.34;5079441;28;20031;-68
2023/01/02 07:09:17;;;;;;;30.60;21.73;;;;;;;7.56;100.00;101431.88;5072862;28;20028;-68
2023/01/02 07:11:43;;;;;;;32.63;21.75;;;;;;;7.60;100.00;101422.75;5065938;28;20020;-68
2023/01/02 07:14:08;;;;;;;29.67;21.17;;;;;;;7.62;100.00;101426.19;5066494;28;20035;-68
2023/01/02 07:16:34;;;;;;;31.17;20.48;;;;;;;7.53;100.00;101405.38;5065734;28;20021;-68
2023/01/02 07:18:59;;;;;;;30.65;21.58;;;;;;;7.67;100.00;101426.81;5067986;28;20620;-68
2023/01/02 07:21:24;;;;;;;32.35;22.45;;;;;;;7.62;100.00;101419.06;5070503;28;20040;-68
2023/01/02 07:23:50;;;;;;;31.30;21.25;;;;;;;7.74;100.00;101430.81;5065834;28;20094;-67
2023/01/02 07:26:16;;;;;;;33.72;22.05;;;;;;;7.79;100.00;101434.06;5073252;28;20079;-68
2023/01/02 07:28:41;;;;;;;34.00;22.00;;;;;;;7.81;100.00;101437.53;5072311;28;20040;-68
2023/01/02 07:31:11;;;;;;;32.97;22.13;;;;;;;7.87;100.00;101439.84;5068723;28;20075;-68
2023/01/02 07:33:36;;;;;;;30.17;20.42;;;;;;;7.79;100.00;101416.25;5065691;28;20368;-67
2023/01/02 07:36:07;;;;;;;31.63;22.15;;;;;;;7.91;100.00;101430.69;5070500;28;20099;-68
2023/01/02 07:38:33;;;;;;;29.63;21.55;;;;;;;7.97;100.00;101438.34;5066021;28;20487;-68
2023/01/02 07:40:59;;;;;;;34.50;22.38;;;;;;;7.89;100.00;101411.22;5064482;28;20814;-68
2023/01/02 07:43:25;;;;;;;27.88;20.75;;;;;;;8.04;100.00;101437.91;5072085;28;20042;-68
2023/01/02 07:45:50;;;;;;;36.30;23.20;;;;;;;8.07;100.00;101429.69;5072526;28;20113;-68
2023/01/02 07:48:16;;;;;;;33.85;24.67;;;;;;;8.05;100.00;101428.03;5073726;28;20701;-68
2023/01/02 07:50:41;;;;;;;36.33;24.27;;;;;;;8.07;100.00;101420.81;5067632;28;20115;-68
2023/01/02 07:53:07;;;;;;;36.92;25.38;;;;;;;8.07;100.00;101407.44;5063972;28;20040;-68
2023/01/02 07:55:32;;;;;;;39.45;25.33;;;;;;;8.17;100.00;101428.19;5067359;28;20036;-68
2023/01/02 07:57:58;;;;;;;40.80;25.80;;;;;;;8.18;100.00;101421.88;5072469;28;20047;-68
2023/01/02 08:00:23;;;;;;;37.42;24.52;;;;;;;8.26;100.00;101433.00;5075460;28;20467;-69
2023/01/02 08:02:51;;;;;;;36.88;24.58;;;;;;;8.26;100.00;101424.13;5070068;28;20125;-68
2023/01/02 08:05:17;;;;;;;38.20;24.85;;;;;;;8.39;100.00;101433.97;5074721;28;20470;-68
2023/01/02 08:07:43;;;;;;;40.13;24.70;;;;;;;8.39;100.00;101425.09;5064672;28;20158;-68
2023/01/02 08:10:09;;;;;;;32.40;22.58;;;;;;;8.52;100.00;101431.41;5083065;28;20070;-68
2023/01/02 08:12:35;;;;;;;31.17;21.42;;;;;;;8.49;100.00;101420.91;5073987;28;20055;-68
2023/01/02 08:15:00;;;;;;;32.67;23.58;;;;;;;8.52;100.00;101416.22;5081757;28;20024;-68
2023/01/02 08:17:26;;;;;;;34.20;22.60;;;;;;;8.45;100.00;101393.50;5069678;28;20679;-68
2023/01/02 08:19:51;;;;;;;34.63;23.00;;;;;;;8.56;100.00;101400.84;5073053;28;20032;-68
2023/01/02 08:22:17;;;;;;;31.98;21.83;;;;;;;8.65;100.00;101409.16;5073325;28;20044;-69
2023/01/02 08:24:42;;;;;;;32.15;21.83;;;;;;;8.78;100.00;101434.16;5080434;28;20082;-68
2023/01/02 08:27:07;;;;;;;33.55;21.95;;;;;;;8.81;100.00;101428.63;5077033;28;20447;-68
2023/01/02 08:29:33;;;;;;;31.02;21.83;;;;;;;8.89;100.00;101442.41;5081396;28;20028;-68
2023/01/02 08:31:58;;;;;;;29.85;21.80;;;;;;;8.85;100.00;101419.47;5081462;28;20028;-69
2023/01/02 08:34:24;;;;;;;28.13;20.58;;;;;;;9.04;100.00;101449.47;5072993;28;20029;-69
2023/01/02 08:36:49;;;;;;;29.75;21.42;;;;;;;9.07;100.00;101435.03;5082294;28;20107;-69
2023/01/02 08:39:15;;;;;;;32.72;22.02;;;;;;;9.19;100.00;101447.59;5083826;28;20490;-70
2023/01/02 08:41:40;;;;;;;31.38;21.98;;;;;;;9.17;100.00;101438.81;5084473;28;20028;-70
2023/01/02 08:44:06;;;;;;;30.35;21.67;;;;;;;9.39;100.00;101459.72;5076749;28;20051;-70
2023/01/02 08:46:33;;;;;;;31.00;21.00;;;;;;;9.47;100.00;101450.22;5079398;28;20093;-70
2023/01/02 08:48:59;;;;;;;29.63;21.45;;;;;;;9.51;100.00;101442.84;5084311;28;20375;-70
2023/01/02 08:51:25;;;;;;;30.67;20.30;;;;;;;9.64;100.00;101441.94;5070673;28;20086;-70
2023/01/02 08:53:50;;;;;;;30.10;20.92;;;;;;;9.71;100.00;101440.59;5071829;28;20094;-70
2023/01/02 08:56:19;;;;;;;29.33;19.65;;;;;;;9.85;100.00;101447.69;5077852;28;20070;-70
2023/01/02 08:58:48;;;;;;;31.75;21.35;;;;;;;9.86;100.00;101436.03;5064281;28;20112;-70
2023/01/02 09:01:14;;;;;;;30.42;19.77;;;;;;;9.94;100.00;101428.31;5078846;28;20040;-70
2023/01/02 09:03:39;;;;;;;26.85;18.33;;;;;;;10.13;100.00;101442.22;5081636;28;20044;-70
2023/01/02 09:06:05;;;;;;;22.83;16.60;;;;;;;10.20;100.00;101441.72;5071626;28;20046;-71
2023/01/02 09:08:30;;;;;;;25.55;17.58;;;;;;;10.36;100.00;101446.88;5068569;28;20036;-70
2023/01/02 09:10:56;;;;;;;27.02;18.63;;;;;;;10.52;100.00;101447.53;5070045;28;20039;-70
2023/01/02 09:13:21;;;;;;;31.17;20.83;;;;;;;10.60;100.00;101450.50;5074535;28;20024;-70
2023/01/02 09:15:46;;;;;;;28.15;18.10;;;;;;;10.73;100.00;101448.69;5081105;28;20028;-70
2023/01/02 09:18:12;;;;;;;25.25;16.48;;;;;;;10.83;100.00;101445.25;5067877;28;20020;-70
2023/01/02 09:20:40;;;;;;;25.35;15.85;;;;;;;10.94;100.00;101437.28;5072400;28;20089;-70
2023/01/02 09:23:06;;;;;;;19.88;14.15;;;;;;;11.05;100.00;101436.50;5075343;28;20043;-70
2023/01/02 09:25:31;;;;;;;18.83;13.25;;;;;;;11.15;100.00;101435.75;5079772;28;20033;-71
2023/01/02 09:27:57;;;;;;;19.67;13.85;;;;;;;11.26;100.00;101430.44;5079002;28;20500;-70
2023/01/02 09:30:22;;;;;;;22.25;13.90;;;;;;;11.32;100.00;101423.78;5073350;28;20039;-70
2023/01/02 09:32:49;;;;;;;20.10;12.75;;;;;;;11.47;100.00;101418.13;5074831;28;20024;-70
2023/01/02 09:35:15;;;;;;;16.17;11.40;;;;;;;11.50;100.00;101411.66;5076308;28;20067;-70
2023/01/02 09:37:41;;;;;;;18.13;11.82;;;;;;;11.66;100.00;101414.09;5073785;28;20031;-70
2023/01/02 09:40:07;;;;;;;20.75;11.70;;;;;;;11.72;100.00;101422.56;5070682;28;20047;-70
2023/01/02 09:42:33;;;;;;;17.67;11.45;;;;;;;11.80;100.00;101408.56;5076153;28;20191;-70
2023/01/02 09:45:03;;;;;;;18.83;10.68;;;;;;;11.87;100.00;101408.00;5076360;28;20123;-70
2023/01/02 09:47:29;;;;;;;16.55;10.68;;;;;;;12.00;100.00;101410.59;5068343;28;20441;-70
2023/01/02 09:50:03;;;;;;;13.18;10.02;;;;;;;12.10;100.00;101407.09;5067397;28;20098;-69
2023/01/02 09:52:31;;;;;;;;;;;;;;;12.17;100.00;101397.56;5076771;28;20020;-69
2023/01/02 09:54:57;;;;;;;15.65;9.93;;;;;;;12.27;100.00;101389.63;5067423;28;19920;-69
2023/01/02 09:57:25;;;;;;;10.93;8.55;;;;;;;12.39;100.00;101385.97;5076437;28;20029;-70
2023/01/02 10:00:05;;;;;;;17.33;11.25;;;;;;;12.45;100.00;101385.50;5083762;28;20447;-70
2023/01/02 10:02:55;;;;;;;15.20;9.38;;;;;;;12.53;100.00;101370.47;5080011;28;20548;-69
2023/01/02 10:05:41;;;;;;;13.32;8.75;;;;;;;12.63;100.00;101362.50;5070017;28;20036;-70
2023/01/02 10:08:17;;;;;;;10.55;7.65;;;;;;;12.77;100.00;101364.97;5077708;28;20422;-69
2023/01/02 10:10:48;;;;;;;10.52;8.15;;;;;;;12.85;100.00;101359.81;5078226;28;20117;-70
2023/01/02 10:13:29;;;;;;;9.70;7.03;;;;;;;12.93;100.00;101355.50;5069204;28;20024;-69
2023/01/02 10:15:58;;;;;;;10.40;6.75;;;;;;;12.96;100.00;101354.44;5071483;28;20227;-70
2023/01/02 10:18:28;;;;;;;11.18;6.70;;;;;;;13.01;100.00;101339.63;5084349;28;20043;-69
2023/01/02 10:20:58;;;;;;;10.23;6.38;;;;;;;13.15;100.00;101354.66;5068962;28;20044;-69
2023/01/02 10:23:29;;;;;;;13.88;7.20;;;;;;;13.13;100.00;101337.78;5072921;28;20032;-70
2023/01/02 10:26:00;;;;;;;17.27;8.23;;;;;;;13.23;100.00;101341.41;5066707;28;20020;-69
2023/01/02 10:28:45;;;;;;;13.15;8.43;;;;;;;13.31;99.89;101345.19;5075859;28;20107;-70
2023/01/02 10:31:27;;;;;;;13.45;8.77;;;;;;;13.41;99.09;101338.03;5078822;28;20040;-69
2023/01/02 10:34:01;;;;;;;14.70;9.65;;;;;;;13.42;98.56;101331.66;5075758;28;20381;-70
2023/01/02 10:36:30;;;;;;;;;;;;;;;13.54;98.21;101336.03;5075432;28;20040;-70
2023/01/02 10:38:59;;;;;;;13.85;9.15;;;;;;;13.53;97.49;101314.59;5064527;28;20371;-70
2023/01/02 10:41:27;;;;;;;14.70;9.38;;;;;;;13.64;97.12;101328.88;5073764;28;20032;-69
2023/01/02 10:43:58;;;;;;;11.50;9.05;;;;;;;13.68;97.40;101329.50;5064682;28;20016;-69
2023/01/02 10:46:37;;;;;;;16.35;9.48;;;;;;;13.74;96.75;101318.19;5067217;28;20036;-70
2023/01/02 10:49:05;;;;;;;12.90;7.15;;;;;;;13.77;95.18;101308.97;5057696;28;20045;-70
2023/01/02 10:51:31;;;;;;;11.00;6.63;;;;;;;13.92;93.31;101313.91;5051582;28;20012;-70
2023/01/02 10:54:08;;;;;;;9.07;6.18;;;;;;;14.01;92.50;101314.94;5062365;28;20041;-70
2023/01/02 10:56:37;;;;;;;11.05;6.85;;;;;;;14.10;90.64;101306.06;5067369;28;20059;-69
2023/01/02 10:59:13;;;;;;;7.82;6.05;;;;;;;14.27;89.46;101310.88;5061449;28;20032;-70
2023/01/02 11:01:52;;;;;;;11.50;7.70;;;;;;;14.26;89.66;101301.94;5065077;28;20073;-69
2023/01/02 11:04:26;;;;;;;11.00;7.07;;;;;;;14.21;90.01;101279.00;5061428;28;20020;-69
2023/01/02 11:07:00;;;;;;;10.77;6.35;;;;;;;14.32;89.86;101277.09;5064157;28;20497;-69
2023/01/02 11:09:32;;;;;;;12.23;7.20;;;;;;;14.36;89.06;101281.25;5058087;28;20108;-70
2023/01/02 11:12:17;;;;;;;8.32;6.30;;;;;;;14.49;88.43;101283.72;5055418;28;20044;-69
2023/01/02 11:14:43;;;;;;;10.38;7.15;;;;;;;14.46;88.35;101265.94;5058659;28;20402;-69
2023/01/02 11:17:18;;;;;;;8.23;6.10;;;;;;;14.57;88.29;101276.63;5058479;28;20028;-69
2023/01/02 11:19:46;;;;;;;8.55;6.25;;;;;;;14.59;88.10;101255.75;5061189;28;20039;-69
2023/01/02 11:22:15;;;;;;;7.68;4.47;;;;;;;14.69;86.02;101266.56;5064471;28;20127;-69